sensor_id;sensor_type;location;lat;lon;timestamp;P1;durP1;ratioP1;P2;durP2;ratioP2
14400;SDS011;7285;50.894;5.462;2023-04-03T00:01:44;1.60;;;1.60;;
14400;SDS011;7285;50.894;5.462;2023-04-03T00:04:11;1.73;;;1.73;;
14400;SDS011;7285;50.894;5.462;2023-04-03T00:06:39;1.40;;;1.40;;
14400;SDS011;7285;50.894;5.462;2023-04-03T00:09:06;1.20;;;1.20;;
14400;SDS011;7285;50.894;5.462;2023-04-03T00:11:35;1.30;;;1.30;;
14400;SDS011;7285;50.894;5.462;2023-04-03T00:14:02;1.23;;;1.23;;
14400;SDS011;7285;50.894;5.462;2023-04-03T00:16:30;1.40;;;1.40;;
14400;SDS011;7285;50.894;5.462;2023-04-03T00:18:56;1.53;;;1.53;;
14400;SDS011;7285;50.894;5.462;2023-04-03T00:21:23;1.20;;;1.20;;
14400;SDS011;7285;50.894;5.462;2023-04-03T00:23:52;1.40;;;1.40;;
14400;SDS011;7285;50.894;5.462;2023-04-03T00:26:19;1.30;;;1.30;;
14400;SDS011;7285;50.894;5.462;2023-04-03T00:28:46;1.80;;;1.80;;
14400;SDS011;7285;50.894;5.462;2023-04-03T00:31:14;1.30;;;1.30;;
14400;SDS011;7285;50.894;5.462;2023-04-03T00:33:41;1.50;;;1.50;;
14400;SDS011;7285;50.894;5.462;2023-04-03T00:36:08;1.40;;;1.40;;
14400;SDS011;7285;50.894;5.462;2023-04-03T00:38:37;1.40;;;1.40;;
14400;SDS011;7285;50.894;5.462;2023-04-03T00:41:05;1.60;;;1.60;;
14400;SDS011;7285;50.894;5.462;2023-04-03T00:43:33;1.30;;;1.30;;
14400;SDS011;7285;50.894;5.462;2023-04-03T00:46:00;1.50;;;1.50;;
14400;SDS011;7285;50.894;5.462;2023-04-03T00:48:28;1.40;;;1.40;;
14400;SDS011;7285;50.894;5.462;2023-04-03T00:50:58;1.50;;;1.50;;
14400;SDS011;7285;50.894;5.462;2023-04-03T00:53:27;1.40;;;1.40;;
14400;SDS011;7285;50.894;5.462;2023-04-03T00:55:57;1.40;;;1.40;;
14400;SDS011;7285;50.894;5.462;2023-04-03T00:58:28;1.40;;;1.40;;
14400;SDS011;7285;50.894;5.462;2023-04-03T01:01:00;1.53;;;1.53;;
14400;SDS011;7285;50.894;5.462;2023-04-03T01:03:32;1.60;;;1.60;;
14400;SDS011;7285;50.894;5.462;2023-04-03T01:05:59;1.40;;;1.40;;
14400;SDS011;7285;50.894;5.462;2023-04-03T01:08:27;1.43;;;1.43;;
14400;SDS011;7285;50.894;5.462;2023-04-03T01:10:54;1.40;;;1.40;;
14400;SDS011;7285;50.894;5.462;2023-04-03T01:13:22;1.50;;;1.50;;
14400;SDS011;7285;50.894;5.462;2023-04-03T01:15:53;1.60;;;1.60;;
14400;SDS011;7285;50.894;5.462;2023-04-03T01:18:21;1.70;;;1.70;;
14400;SDS011;7285;50.894;5.462;2023-04-03T01:24:01;1.50;;;1.50;;
14400;SDS011;7285;50.894;5.462;2023-04-03T01:26:47;1.60;;;1.60;;
14400;SDS011;7285;50.894;5.462;2023-04-03T01:29:14;1.40;;;1.40;;
14400;SDS011;7285;50.894;5.462;2023-04-03T01:31:48;1.90;;;1.90;;
14400;SDS011;7285;50.894;5.462;2023-04-03T01:34:16;1.57;;;1.57;;
14400;SDS011;7285;50.894;5.462;2023-04-03T01:36:43;1.50;;;1.50;;
14400;SDS011;7285;50.894;5.462;2023-04-03T01:39:10;1.53;;;1.53;;
14400;SDS011;7285;50.894;5.462;2023-04-03T01:41:37;1.57;;;1.57;;
14400;SDS011;7285;50.894;5.462;2023-04-03T01:44:05;1.50;;;1.50;;
14400;SDS011;7285;50.894;5.462;2023-04-03T01:46:32;1.40;;;1.40;;
14400;SDS011;7285;50.894;5.462;2023-04-03T01:49:01;1.70;;;1.70;;
14400;SDS011;7285;50.894;5.462;2023-04-03T01:51:28;1.70;;;1.70;;
14400;SDS011;7285;50.894;5.462;2023-04-03T01:53:55;1.90;;;1.90;;
14400;SDS011;7285;50.894;5.462;2023-04-03T01:56:22;1.60;;;1.60;;
14400;SDS011;7285;50.894;5.462;2023-04-03T01:58:49;1.70;;;1.70;;
14400;SDS011;7285;50.894;5.462;2023-04-03T02:01:16;1.70;;;1.70;;
14400;SDS011;7285;50.894;5.462;2023-04-03T02:03:43;1.60;;;1.60;;
14400;SDS011;7285;50.894;5.462;2023-04-03T02:06:11;1.50;;;1.50;;
14400;SDS011;7285;50.894;5.462;2023-04-03T02:08:38;2.27;;;2.27;;
14400;SDS011;7285;50.894;5.462;2023-04-03T02:11:05;1.43;;;1.43;;
14400;SDS011;7285;50.894;5.462;2023-04-03T02:13:32;1.60;;;1.60;;
14400;SDS011;7285;50.894;5.462;2023-04-03T02:15:59;1.50;;;1.50;;
14400;SDS011;7285;50.894;5.462;2023-04-03T02:18:32;1.63;;;1.63;;
14400;SDS011;7285;50.894;5.462;2023-04-03T02:20:59;1.60;;;1.60;;
14400;SDS011;7285;50.894;5.462;2023-04-03T02:23:28;1.60;;;1.60;;
14400;SDS011;7285;50.894;5.462;2023-04-03T02:26:01;1.70;;;1.70;;
14400;SDS011;7285;50.894;5.462;2023-04-03T02:28:30;2.00;;;2.00;;
14400;SDS011;7285;50.894;5.462;2023-04-03T02:30:57;1.40;;;1.40;;
14400;SDS011;7285;50.894;5.462;2023-04-03T02:33:24;1.50;;;1.50;;
14400;SDS011;7285;50.894;5.462;2023-04-03T02:35:52;1.60;;;1.60;;
14400;SDS011;7285;50.894;5.462;2023-04-03T02:38:19;1.60;;;1.60;;
14400;SDS011;7285;50.894;5.462;2023-04-03T02:40:48;1.40;;;1.40;;
14400;SDS011;7285;50.894;5.462;2023-04-03T02:43:16;1.60;;;1.60;;
14400;SDS011;7285;50.894;5.462;2023-04-03T02:45:43;1.30;;;1.30;;
14400;SDS011;7285;50.894;5.462;2023-04-03T02:48:10;1.60;;;1.60;;
14400;SDS011;7285;50.894;5.462;2023-04-03T02:50:37;1.70;;;1.70;;
14400;SDS011;7285;50.894;5.462;2023-04-03T02:53:04;1.70;;;1.70;;
14400;SDS011;7285;50.894;5.462;2023-04-03T02:55:31;1.60;;;1.60;;
14400;SDS011;7285;50.894;5.462;2023-04-03T02:57:59;1.60;;;1.60;;
14400;SDS011;7285;50.894;5.462;2023-04-03T03:00:26;1.70;;;1.70;;
14400;SDS011;7285;50.894;5.462;2023-04-03T03:02:53;1.60;;;1.60;;
14400;SDS011;7285;50.894;5.462;2023-04-03T03:05:20;1.90;;;1.90;;
14400;SDS011;7285;50.894;5.462;2023-04-03T03:07:47;1.70;;;1.70;;
14400;SDS011;7285;50.894;5.462;2023-04-03T03:10:14;1.80;;;1.80;;
14400;SDS011;7285;50.894;5.462;2023-04-03T03:12:41;1.80;;;1.80;;
14400;SDS011;7285;50.894;5.462;2023-04-03T03:15:10;1.60;;;1.60;;
14400;SDS011;7285;50.894;5.462;2023-04-03T03:17:37;1.50;;;1.50;;
14400;SDS011;7285;50.894;5.462;2023-04-03T03:20:05;1.70;;;1.70;;
14400;SDS011;7285;50.894;5.462;2023-04-03T03:22:34;1.70;;;1.70;;
14400;SDS011;7285;50.894;5.462;2023-04-03T03:25:01;1.63;;;1.63;;
14400;SDS011;7285;50.894;5.462;2023-04-03T03:27:29;1.60;;;1.60;;
14400;SDS011;7285;50.894;5.462;2023-04-03T03:29:56;1.90;;;1.90;;
14400;SDS011;7285;50.894;5.462;2023-04-03T03:32:24;1.70;;;1.70;;
14400;SDS011;7285;50.894;5.462;2023-04-03T03:34:53;1.63;;;1.63;;
14400;SDS011;7285;50.894;5.462;2023-04-03T03:37:20;1.80;;;1.80;;
14400;SDS011;7285;50.894;5.462;2023-04-03T03:39:47;1.60;;;1.60;;
14400;SDS011;7285;50.894;5.462;2023-04-03T03:42:14;1.60;;;1.60;;
14400;SDS011;7285;50.894;5.462;2023-04-03T03:44:42;1.60;;;1.60;;
14400;SDS011;7285;50.894;5.462;2023-04-03T03:47:08;1.70;;;1.70;;
14400;SDS011;7285;50.894;5.462;2023-04-03T03:49:37;1.57;;;1.57;;
14400;SDS011;7285;50.894;5.462;2023-04-03T03:52:04;1.70;;;1.70;;
14400;SDS011;7285;50.894;5.462;2023-04-03T03:54:31;1.70;;;1.70;;
14400;SDS011;7285;50.894;5.462;2023-04-03T03:56:58;1.50;;;1.50;;
14400;SDS011;7285;50.894;5.462;2023-04-03T03:59:25;1.60;;;1.60;;
14400;SDS011;7285;50.894;5.462;2023-04-03T04:01:52;1.67;;;1.67;;
14400;SDS011;7285;50.894;5.462;2023-04-03T04:04:19;1.90;;;1.90;;
14400;SDS011;7285;50.894;5.462;2023-04-03T04:06:47;1.70;;;1.70;;
14400;SDS011;7285;50.894;5.462;2023-04-03T04:09:14;1.73;;;1.73;;
14400;SDS011;7285;50.894;5.462;2023-04-03T04:11:41;1.70;;;1.70;;
14400;SDS011;7285;50.894;5.462;2023-04-03T04:14:08;1.70;;;1.70;;
14400;SDS011;7285;50.894;5.462;2023-04-03T04:16:37;1.60;;;1.60;;
14400;SDS011;7285;50.894;5.462;2023-04-03T04:19:04;1.60;;;1.60;;
14400;SDS011;7285;50.894;5.462;2023-04-03T04:21:31;1.60;;;1.60;;
14400;SDS011;7285;50.894;5.462;2023-04-03T04:23:59;1.53;;;1.53;;
14400;SDS011;7285;50.894;5.462;2023-04-03T04:26:26;1.70;;;1.70;;
14400;SDS011;7285;50.894;5.462;2023-04-03T04:28:53;1.60;;;1.60;;
14400;SDS011;7285;50.894;5.462;2023-04-03T04:31:20;1.70;;;1.70;;
14400;SDS011;7285;50.894;5.462;2023-04-03T04:33:47;1.53;;;1.53;;
14400;SDS011;7285;50.894;5.462;2023-04-03T04:36:14;1.70;;;1.70;;
14400;SDS011;7285;50.894;5.462;2023-04-03T04:38:41;1.67;;;1.67;;
14400;SDS011;7285;50.894;5.462;2023-04-03T04:41:09;1.67;;;1.67;;
14400;SDS011;7285;50.894;5.462;2023-04-03T04:43:36;1.60;;;1.60;;
14400;SDS011;7285;50.894;5.462;2023-04-03T04:46:04;1.67;;;1.67;;
14400;SDS011;7285;50.894;5.462;2023-04-03T04:48:32;1.70;;;1.70;;
14400;SDS011;7285;50.894;5.462;2023-04-03T04:50:59;1.70;;;1.70;;
14400;SDS011;7285;50.894;5.462;2023-04-03T04:53:26;1.70;;;1.70;;
14400;SDS011;7285;50.894;5.462;2023-04-03T04:55:53;1.53;;;1.53;;
14400;SDS011;7285;50.894;5.462;2023-04-03T04:58:21;1.60;;;1.60;;
14400;SDS011;7285;50.894;5.462;2023-04-03T05:00:48;1.70;;;1.70;;
14400;SDS011;7285;50.894;5.462;2023-04-03T05:03:15;1.80;;;1.80;;
14400;SDS011;7285;50.894;5.462;2023-04-03T05:05:42;1.70;;;1.70;;
14400;SDS011;7285;50.894;5.462;2023-04-03T05:08:10;1.80;;;1.80;;
14400;SDS011;7285;50.894;5.462;2023-04-03T05:10:37;1.73;;;1.73;;
14400;SDS011;7285;50.894;5.462;2023-04-03T05:13:05;1.80;;;1.80;;
14400;SDS011;7285;50.894;5.462;2023-04-03T05:15:34;1.70;;;1.70;;
14400;SDS011;7285;50.894;5.462;2023-04-03T05:18:01;1.70;;;1.70;;
14400;SDS011;7285;50.894;5.462;2023-04-03T05:20:27;1.60;;;1.60;;
14400;SDS011;7285;50.894;5.462;2023-04-03T05:22:55;1.90;;;1.90;;
14400;SDS011;7285;50.894;5.462;2023-04-03T05:25:22;1.80;;;1.80;;
14400;SDS011;7285;50.894;5.462;2023-04-03T05:27:49;1.67;;;1.67;;
14400;SDS011;7285;50.894;5.462;2023-04-03T05:30:16;1.90;;;1.90;;
14400;SDS011;7285;50.894;5.462;2023-04-03T05:32:44;1.80;;;1.80;;
14400;SDS011;7285;50.894;5.462;2023-04-03T05:35:11;1.80;;;1.80;;
14400;SDS011;7285;50.894;5.462;2023-04-03T05:37:38;2.37;;;2.37;;
14400;SDS011;7285;50.894;5.462;2023-04-03T05:40:06;1.77;;;1.77;;
14400;SDS011;7285;50.894;5.462;2023-04-03T05:42:34;1.77;;;1.77;;
14400;SDS011;7285;50.894;5.462;2023-04-03T05:45:01;1.70;;;1.70;;
14400;SDS011;7285;50.894;5.462;2023-04-03T05:47:28;1.70;;;1.70;;
14400;SDS011;7285;50.894;5.462;2023-04-03T05:49:57;1.70;;;1.70;;
14400;SDS011;7285;50.894;5.462;2023-04-03T05:52:25;2.37;;;2.37;;
14400;SDS011;7285;50.894;5.462;2023-04-03T05:54:53;2.00;;;2.00;;
14400;SDS011;7285;50.894;5.462;2023-04-03T05:57:20;1.63;;;1.63;;
14400;SDS011;7285;50.894;5.462;2023-04-03T05:59:47;1.80;;;1.80;;
14400;SDS011;7285;50.894;5.462;2023-04-03T06:02:15;1.70;;;1.70;;
14400;SDS011;7285;50.894;5.462;2023-04-03T06:04:43;2.10;;;2.10;;
14400;SDS011;7285;50.894;5.462;2023-04-03T06:07:12;1.80;;;1.80;;
14400;SDS011;7285;50.894;5.462;2023-04-03T06:09:41;1.50;;;1.50;;
14400;SDS011;7285;50.894;5.462;2023-04-03T06:12:08;1.77;;;1.77;;
14400;SDS011;7285;50.894;5.462;2023-04-03T06:14:36;1.60;;;1.60;;
14400;SDS011;7285;50.894;5.462;2023-04-03T06:17:03;1.70;;;1.70;;
14400;SDS011;7285;50.894;5.462;2023-04-03T06:19:31;1.53;;;1.53;;
14400;SDS011;7285;50.894;5.462;2023-04-03T06:21:58;1.27;;;1.27;;
14400;SDS011;7285;50.894;5.462;2023-04-03T06:24:26;1.50;;;1.50;;
14400;SDS011;7285;50.894;5.462;2023-04-03T06:26:53;1.60;;;1.60;;
14400;SDS011;7285;50.894;5.462;2023-04-03T06:29:21;2.47;;;2.43;;
14400;SDS011;7285;50.894;5.462;2023-04-03T06:31:48;1.80;;;1.80;;
14400;SDS011;7285;50.894;5.462;2023-04-03T06:34:15;1.57;;;1.57;;
14400;SDS011;7285;50.894;5.462;2023-04-03T06:36:43;1.80;;;1.80;;
14400;SDS011;7285;50.894;5.462;2023-04-03T06:39:11;2.07;;;2.07;;
14400;SDS011;7285;50.894;5.462;2023-04-03T06:41:42;1.40;;;1.40;;
14400;SDS011;7285;50.894;5.462;2023-04-03T06:44:10;1.57;;;1.57;;
14400;SDS011;7285;50.894;5.462;2023-04-03T06:46:38;1.40;;;1.40;;
14400;SDS011;7285;50.894;5.462;2023-04-03T06:49:05;1.50;;;1.50;;
14400;SDS011;7285;50.894;5.462;2023-04-03T06:51:33;1.20;;;1.20;;
14400;SDS011;7285;50.894;5.462;2023-04-03T06:54:01;1.80;;;1.80;;
14400;SDS011;7285;50.894;5.462;2023-04-03T06:56:29;1.20;;;1.20;;
14400;SDS011;7285;50.894;5.462;2023-04-03T06:58:58;1.30;;;1.30;;
14400;SDS011;7285;50.894;5.462;2023-04-03T07:01:25;1.20;;;1.20;;
14400;SDS011;7285;50.894;5.462;2023-04-03T07:03:53;1.20;;;1.20;;
14400;SDS011;7285;50.894;5.462;2023-04-03T07:06:21;1.60;;;1.60;;
14400;SDS011;7285;50.894;5.462;2023-04-03T07:08:48;1.10;;;1.10;;
14400;SDS011;7285;50.894;5.462;2023-04-03T07:11:16;1.20;;;1.20;;
14400;SDS011;7285;50.894;5.462;2023-04-03T07:13:43;1.50;;;1.50;;
14400;SDS011;7285;50.894;5.462;2023-04-03T07:16:11;1.40;;;1.40;;
14400;SDS011;7285;50.894;5.462;2023-04-03T07:18:38;1.50;;;1.50;;
14400;SDS011;7285;50.894;5.462;2023-04-03T07:21:06;1.20;;;1.20;;
14400;SDS011;7285;50.894;5.462;2023-04-03T07:23:33;1.27;;;1.27;;
14400;SDS011;7285;50.894;5.462;2023-04-03T07:26:00;1.30;;;1.30;;
14400;SDS011;7285;50.894;5.462;2023-04-03T07:28:27;1.20;;;1.20;;
14400;SDS011;7285;50.894;5.462;2023-04-03T07:30:59;1.20;;;1.20;;
14400;SDS011;7285;50.894;5.462;2023-04-03T07:33:29;2.03;;;2.03;;
14400;SDS011;7285;50.894;5.462;2023-04-03T07:35:56;1.60;;;1.60;;
14400;SDS011;7285;50.894;5.462;2023-04-03T07:38:23;1.93;;;1.93;;
14400;SDS011;7285;50.894;5.462;2023-04-03T07:40:51;1.10;;;1.10;;
14400;SDS011;7285;50.894;5.462;2023-04-03T07:43:19;1.30;;;1.30;;
14400;SDS011;7285;50.894;5.462;2023-04-03T07:45:47;1.10;;;1.10;;
14400;SDS011;7285;50.894;5.462;2023-04-03T07:48:15;1.10;;;1.10;;
14400;SDS011;7285;50.894;5.462;2023-04-03T07:50:44;1.23;;;1.23;;
14400;SDS011;7285;50.894;5.462;2023-04-03T07:53:12;1.10;;;1.10;;
14400;SDS011;7285;50.894;5.462;2023-04-03T07:55:39;1.10;;;1.10;;
14400;SDS011;7285;50.894;5.462;2023-04-03T07:58:08;1.47;;;1.47;;
14400;SDS011;7285;50.894;5.462;2023-04-03T08:00:36;1.10;;;1.10;;
14400;SDS011;7285;50.894;5.462;2023-04-03T08:03:04;1.70;;;1.70;;
14400;SDS011;7285;50.894;5.462;2023-04-03T08:05:31;1.00;;;1.00;;
14400;SDS011;7285;50.894;5.462;2023-04-03T08:08:03;0.80;;;0.80;;
14400;SDS011;7285;50.894;5.462;2023-04-03T08:10:30;1.50;;;1.50;;
14400;SDS011;7285;50.894;5.462;2023-04-03T08:12:58;0.90;;;0.90;;
14400;SDS011;7285;50.894;5.462;2023-04-03T08:15:25;1.67;;;1.67;;
14400;SDS011;7285;50.894;5.462;2023-04-03T08:17:52;0.83;;;0.83;;
14400;SDS011;7285;50.894;5.462;2023-04-03T08:20:19;0.83;;;0.83;;
14400;SDS011;7285;50.894;5.462;2023-04-03T08:22:46;1.00;;;1.00;;
14400;SDS011;7285;50.894;5.462;2023-04-03T08:25:14;1.00;;;1.00;;
14400;SDS011;7285;50.894;5.462;2023-04-03T08:27:42;1.03;;;1.03;;
14400;SDS011;7285;50.894;5.462;2023-04-03T08:30:10;1.07;;;1.07;;
14400;SDS011;7285;50.894;5.462;2023-04-03T08:32:37;1.00;;;1.00;;
14400;SDS011;7285;50.894;5.462;2023-04-03T08:35:07;0.80;;;0.80;;
14400;SDS011;7285;50.894;5.462;2023-04-03T08:37:34;1.13;;;1.13;;
14400;SDS011;7285;50.894;5.462;2023-04-03T08:40:02;1.23;;;1.23;;
14400;SDS011;7285;50.894;5.462;2023-04-03T08:42:35;0.90;;;0.90;;
14400;SDS011;7285;50.894;5.462;2023-04-03T08:45:09;1.20;;;1.20;;
14400;SDS011;7285;50.894;5.462;2023-04-03T08:47:40;0.80;;;0.80;;
14400;SDS011;7285;50.894;5.462;2023-04-03T08:50:13;0.83;;;0.83;;
14400;SDS011;7285;50.894;5.462;2023-04-03T08:52:44;1.00;;;1.00;;
14400;SDS011;7285;50.894;5.462;2023-04-03T08:55:17;0.83;;;0.83;;
14400;SDS011;7285;50.894;5.462;2023-04-03T08:57:53;1.30;;;1.30;;
14400;SDS011;7285;50.894;5.462;2023-04-03T09:00:27;1.00;;;1.00;;
14400;SDS011;7285;50.894;5.462;2023-04-03T09:02:56;0.90;;;0.90;;
14400;SDS011;7285;50.894;5.462;2023-04-03T09:05:27;1.33;;;1.33;;
14400;SDS011;7285;50.894;5.462;2023-04-03T09:08:04;0.97;;;0.97;;
14400;SDS011;7285;50.894;5.462;2023-04-03T09:10:37;0.87;;;0.87;;
14400;SDS011;7285;50.894;5.462;2023-04-03T09:13:08;0.90;;;0.90;;
14400;SDS011;7285;50.894;5.462;2023-04-03T09:15:39;0.87;;;0.87;;
14400;SDS011;7285;50.894;5.462;2023-04-03T09:18:10;0.80;;;0.80;;
14400;SDS011;7285;50.894;5.462;2023-04-03T09:20:43;0.90;;;0.90;;
14400;SDS011;7285;50.894;5.462;2023-04-03T09:23:17;0.80;;;0.80;;
14400;SDS011;7285;50.894;5.462;2023-04-03T09:25:48;0.90;;;0.90;;
14400;SDS011;7285;50.894;5.462;2023-04-03T09:28:20;0.97;;;0.97;;
14400;SDS011;7285;50.894;5.462;2023-04-03T09:30:47;0.80;;;0.80;;
14400;SDS011;7285;50.894;5.462;2023-04-03T09:33:14;0.80;;;0.80;;
14400;SDS011;7285;50.894;5.462;2023-04-03T09:35:43;0.80;;;0.80;;
14400;SDS011;7285;50.894;5.462;2023-04-03T09:38:20;0.93;;;0.93;;
14400;SDS011;7285;50.894;5.462;2023-04-03T09:40:48;0.80;;;0.80;;
14400;SDS011;7285;50.894;5.462;2023-04-03T09:43:22;1.00;;;1.00;;
14400;SDS011;7285;50.894;5.462;2023-04-03T09:45:54;0.73;;;0.73;;
14400;SDS011;7285;50.894;5.462;2023-04-03T09:48:23;0.70;;;0.70;;
14400;SDS011;7285;50.894;5.462;2023-04-03T09:50:59;1.07;;;1.07;;
14400;SDS011;7285;50.894;5.462;2023-04-03T09:53:32;0.63;;;0.63;;
14400;SDS011;7285;50.894;5.462;2023-04-03T09:56:03;0.70;;;0.70;;
14400;SDS011;7285;50.894;5.462;2023-04-03T09:58:46;0.60;;;0.60;;
14400;SDS011;7285;50.894;5.462;2023-04-03T10:01:23;0.83;;;0.83;;
14400;SDS011;7285;50.894;5.462;2023-04-03T10:04:06;0.70;;;0.70;;
14400;SDS011;7285;50.894;5.462;2023-04-03T10:06:37;0.60;;;0.60;;
14400;SDS011;7285;50.894;5.462;2023-04-03T10:09:15;0.60;;;0.60;;
14400;SDS011;7285;50.894;5.462;2023-04-03T10:11:58;0.50;;;0.50;;
14400;SDS011;7285;50.894;5.462;2023-04-03T10:14:29;0.60;;;0.60;;
14400;SDS011;7285;50.894;5.462;2023-04-03T10:16:58;0.60;;;0.60;;
14400;SDS011;7285;50.894;5.462;2023-04-03T10:19:34;0.50;;;0.50;;
14400;SDS011;7285;50.894;5.462;2023-04-03T10:22:11;0.50;;;0.50;;
14400;SDS011;7285;50.894;5.462;2023-04-03T10:24:47;0.60;;;0.60;;
14400;SDS011;7285;50.894;5.462;2023-04-03T10:27:22;0.53;;;0.53;;
14400;SDS011;7285;50.894;5.462;2023-04-03T10:30:01;0.60;;;0.60;;
14400;SDS011;7285;50.894;5.462;2023-04-03T10:32:42;7.97;;;0.70;;
14400;SDS011;7285;50.894;5.462;2023-04-03T10:35:16;0.50;;;0.50;;
14400;SDS011;7285;50.894;5.462;2023-04-03T10:37:53;0.60;;;0.60;;
14400;SDS011;7285;50.894;5.462;2023-04-03T10:40:29;0.70;;;0.70;;
14400;SDS011;7285;50.894;5.462;2023-04-03T10:43:01;0.50;;;0.50;;
14400;SDS011;7285;50.894;5.462;2023-04-03T10:45:43;0.50;;;0.50;;
14400;SDS011;7285;50.894;5.462;2023-04-03T10:48:25;0.60;;;0.60;;
14400;SDS011;7285;50.894;5.462;2023-04-03T10:51:13;0.60;;;0.60;;
14400;SDS011;7285;50.894;5.462;2023-04-03T10:53:50;0.50;;;0.50;;
14400;SDS011;7285;50.894;5.462;2023-04-03T10:56:25;0.50;;;0.50;;
14400;SDS011;7285;50.894;5.462;2023-04-03T10:58:59;1.03;;;1.03;;
14400;SDS011;7285;50.894;5.462;2023-04-03T11:01:35;0.50;;;0.50;;
14400;SDS011;7285;50.894;5.462;2023-04-03T11:04:06;0.50;;;0.50;;
14400;SDS011;7285;50.894;5.462;2023-04-03T11:06:37;0.40;;;0.40;;
14400;SDS011;7285;50.894;5.462;2023-04-03T11:09:11;0.50;;;0.50;;
14400;SDS011;7285;50.894;5.462;2023-04-03T11:11:45;0.50;;;0.50;;
14400;SDS011;7285;50.894;5.462;2023-04-03T11:14:15;0.50;;;0.50;;
14400;SDS011;7285;50.894;5.462;2023-04-03T11:16:52;0.50;;;0.50;;
14400;SDS011;7285;50.894;5.462;2023-04-03T11:19:28;0.60;;;0.60;;
14400;SDS011;7285;50.894;5.462;2023-04-03T11:22:03;0.40;;;0.40;;
14400;SDS011;7285;50.894;5.462;2023-04-03T11:24:36;0.50;;;0.50;;
14400;SDS011;7285;50.894;5.462;2023-04-03T11:27:08;0.50;;;0.50;;
14400;SDS011;7285;50.894;5.462;2023-04-03T11:29:41;0.40;;;0.40;;
14400;SDS011;7285;50.894;5.462;2023-04-03T11:35:00;0.43;;;0.43;;
14400;SDS011;7285;50.894;5.462;2023-04-03T11:37:33;0.50;;;0.50;;
14400;SDS011;7285;50.894;5.462;2023-04-03T11:40:03;0.40;;;0.40;;
14400;SDS011;7285;50.894;5.462;2023-04-03T11:42:34;0.40;;;0.40;;
14400;SDS011;7285;50.894;5.462;2023-04-03T11:47:55;0.60;;;0.60;;
14400;SDS011;7285;50.894;5.462;2023-04-03T11:50:40;0.43;;;0.43;;
14400;SDS011;7285;50.894;5.462;2023-04-03T11:53:25;0.80;;;0.80;;
14400;SDS011;7285;50.894;5.462;2023-04-03T11:55:58;0.90;;;0.90;;
14400;SDS011;7285;50.894;5.462;2023-04-03T11:58:27;0.57;;;0.57;;
14400;SDS011;7285;50.894;5.462;2023-04-03T12:01:00;0.73;;;0.73;;
14400;SDS011;7285;50.894;5.462;2023-04-03T12:12:43;0.40;;;0.40;;
14400;SDS011;7285;50.894;5.462;2023-04-03T12:24:34;0.40;;;0.40;;
14400;SDS011;7285;50.894;5.462;2023-04-03T12:30:06;0.40;;;0.40;;
14400;SDS011;7285;50.894;5.462;2023-04-03T12:32:48;0.40;;;0.40;;
14400;SDS011;7285;50.894;5.462;2023-04-03T12:35:26;0.40;;;0.40;;
14400;SDS011;7285;50.894;5.462;2023-04-03T12:38:05;1.37;;;1.07;;
14400;SDS011;7285;50.894;5.462;2023-04-03T12:41:04;0.50;;;0.50;;
14400;SDS011;7285;50.894;5.462;2023-04-03T12:43:50;0.40;;;0.40;;
14400;SDS011;7285;50.894;5.462;2023-04-03T12:46:33;0.50;;;0.50;;
14400;SDS011;7285;50.894;5.462;2023-04-03T12:49:05;0.40;;;0.40;;
14400;SDS011;7285;50.894;5.462;2023-04-03T12:51:47;0.80;;;0.80;;
14400;SDS011;7285;50.894;5.462;2023-04-03T12:54:16;0.40;;;0.40;;
14400;SDS011;7285;50.894;5.462;2023-04-03T12:56:47;1.00;;;1.00;;
14400;SDS011;7285;50.894;5.462;2023-04-03T12:59:17;0.40;;;0.40;;
14400;SDS011;7285;50.894;5.462;2023-04-03T13:01:52;0.40;;;0.40;;
14400;SDS011;7285;50.894;5.462;2023-04-03T13:04:20;0.40;;;0.40;;
14400;SDS011;7285;50.894;5.462;2023-04-03T13:06:48;0.40;;;0.40;;
14400;SDS011;7285;50.894;5.462;2023-04-03T13:09:21;0.40;;;0.40;;
14400;SDS011;7285;50.894;5.462;2023-04-03T13:11:55;0.40;;;0.40;;
14400;SDS011;7285;50.894;5.462;2023-04-03T13:14:25;0.60;;;0.60;;
14400;SDS011;7285;50.894;5.462;2023-04-03T13:16:54;0.40;;;0.40;;
14400;SDS011;7285;50.894;5.462;2023-04-03T13:19:22;0.43;;;0.43;;
14400;SDS011;7285;50.894;5.462;2023-04-03T13:21:51;0.60;;;0.60;;
14400;SDS011;7285;50.894;5.462;2023-04-03T13:24:24;0.50;;;0.50;;
14400;SDS011;7285;50.894;5.462;2023-04-03T13:26:52;0.30;;;0.30;;
14400;SDS011;7285;50.894;5.462;2023-04-03T13:29:21;0.77;;;0.77;;
14400;SDS011;7285;50.894;5.462;2023-04-03T13:31:52;0.30;;;0.30;;
14400;SDS011;7285;50.894;5.462;2023-04-03T13:34:21;0.40;;;0.40;;
14400;SDS011;7285;50.894;5.462;2023-04-03T13:36:55;0.60;;;0.60;;
14400;SDS011;7285;50.894;5.462;2023-04-03T13:39:25;0.80;;;0.80;;
14400;SDS011;7285;50.894;5.462;2023-04-03T13:41:54;0.67;;;0.67;;
14400;SDS011;7285;50.894;5.462;2023-04-03T13:44:30;0.30;;;0.30;;
14400;SDS011;7285;50.894;5.462;2023-04-03T13:47:01;0.50;;;0.50;;
14400;SDS011;7285;50.894;5.462;2023-04-03T13:49:43;0.90;;;0.70;;
14400;SDS011;7285;50.894;5.462;2023-04-03T13:52:21;0.40;;;0.40;;
14400;SDS011;7285;50.894;5.462;2023-04-03T13:54:54;0.40;;;0.40;;
14400;SDS011;7285;50.894;5.462;2023-04-03T13:57:23;0.40;;;0.40;;
14400;SDS011;7285;50.894;5.462;2023-04-03T13:59:50;0.77;;;0.77;;
14400;SDS011;7285;50.894;5.462;2023-04-03T14:02:19;0.50;;;0.50;;
14400;SDS011;7285;50.894;5.462;2023-04-03T14:04:50;0.40;;;0.40;;
14400;SDS011;7285;50.894;5.462;2023-04-03T14:07:21;0.40;;;0.40;;
14400;SDS011;7285;50.894;5.462;2023-04-03T14:09:49;0.77;;;0.77;;
14400;SDS011;7285;50.894;5.462;2023-04-03T14:12:18;0.40;;;0.40;;
14400;SDS011;7285;50.894;5.462;2023-04-03T14:14:51;0.40;;;0.40;;
14400;SDS011;7285;50.894;5.462;2023-04-03T14:17:19;1.37;;;0.53;;
14400;SDS011;7285;50.894;5.462;2023-04-03T14:19:49;0.40;;;0.40;;
14400;SDS011;7285;50.894;5.462;2023-04-03T14:22:17;0.40;;;0.40;;
14400;SDS011;7285;50.894;5.462;2023-04-03T14:24:46;0.40;;;0.40;;
14400;SDS011;7285;50.894;5.462;2023-04-03T14:27:16;0.40;;;0.40;;
14400;SDS011;7285;50.894;5.462;2023-04-03T14:29:47;0.40;;;0.40;;
14400;SDS011;7285;50.894;5.462;2023-04-03T14:32:16;0.67;;;0.67;;
14400;SDS011;7285;50.894;5.462;2023-04-03T14:34:44;0.63;;;0.63;;
14400;SDS011;7285;50.894;5.462;2023-04-03T14:37:12;0.50;;;0.50;;
14400;SDS011;7285;50.894;5.462;2023-04-03T14:39:42;0.40;;;0.40;;
14400;SDS011;7285;50.894;5.462;2023-04-03T14:42:11;0.50;;;0.50;;
14400;SDS011;7285;50.894;5.462;2023-04-03T14:44:41;0.47;;;0.47;;
14400;SDS011;7285;50.894;5.462;2023-04-03T14:47:09;0.50;;;0.50;;
14400;SDS011;7285;50.894;5.462;2023-04-03T14:49:37;0.47;;;0.47;;
14400;SDS011;7285;50.894;5.462;2023-04-03T14:52:05;0.40;;;0.40;;
14400;SDS011;7285;50.894;5.462;2023-04-03T14:54:32;0.43;;;0.43;;
14400;SDS011;7285;50.894;5.462;2023-04-03T14:56:59;0.40;;;0.40;;
14400;SDS011;7285;50.894;5.462;2023-04-03T14:59:28;0.40;;;0.40;;
14400;SDS011;7285;50.894;5.462;2023-04-03T15:01:58;0.40;;;0.40;;
14400;SDS011;7285;50.894;5.462;2023-04-03T15:04:25;0.40;;;0.40;;
14400;SDS011;7285;50.894;5.462;2023-04-03T15:06:53;0.40;;;0.40;;
14400;SDS011;7285;50.894;5.462;2023-04-03T15:09:21;0.40;;;0.40;;
14400;SDS011;7285;50.894;5.462;2023-04-03T15:11:49;0.47;;;0.47;;
14400;SDS011;7285;50.894;5.462;2023-04-03T15:14:16;0.40;;;0.40;;
14400;SDS011;7285;50.894;5.462;2023-04-03T15:16:44;0.40;;;0.40;;
14400;SDS011;7285;50.894;5.462;2023-04-03T15:19:12;0.70;;;0.70;;
14400;SDS011;7285;50.894;5.462;2023-04-03T15:21:39;0.40;;;0.40;;
14400;SDS011;7285;50.894;5.462;2023-04-03T15:24:06;0.50;;;0.50;;
14400;SDS011;7285;50.894;5.462;2023-04-03T15:26:35;0.60;;;0.60;;
14400;SDS011;7285;50.894;5.462;2023-04-03T15:29:02;0.70;;;0.70;;
14400;SDS011;7285;50.894;5.462;2023-04-03T15:31:30;0.37;;;0.37;;
14400;SDS011;7285;50.894;5.462;2023-04-03T15:33:57;0.40;;;0.40;;
14400;SDS011;7285;50.894;5.462;2023-04-03T15:36:26;0.40;;;0.40;;
14400;SDS011;7285;50.894;5.462;2023-04-03T15:38:52;0.50;;;0.50;;
14400;SDS011;7285;50.894;5.462;2023-04-03T15:41:20;0.33;;;0.33;;
14400;SDS011;7285;50.894;5.462;2023-04-03T15:43:47;0.50;;;0.50;;
14400;SDS011;7285;50.894;5.462;2023-04-03T15:46:14;0.73;;;0.73;;